sensor_id;sensor_type;location;lat;lon;timestamp;temperature;humidity
3208;DHT22;1616;52.394;9.756;2022-11-04T00:01:57;11.70;1.60
3208;DHT22;1616;52.394;9.756;2022-11-04T00:04:25;11.70;1.60
3208;DHT22;1616;52.394;9.756;2022-11-04T00:06:52;11.80;1.70
3208;DHT22;1616;52.394;9.756;2022-11-04T00:09:23;11.80;1.70
3208;DHT22;1616;52.394;9.756;2022-11-04T00:11:49;11.90;1.70
3208;DHT22;1616;52.394;9.756;2022-11-04T00:14:34;11.90;1.60
3208;DHT22;1616;52.394;9.756;2022-11-04T00:17:01;11.90;1.40
3208;DHT22;1616;52.394;9.756;2022-11-04T00:19:49;12.00;1.20
3208;DHT22;1616;52.394;9.756;2022-11-04T00:22:34;12.00;1.20
3208;DHT22;1616;52.394;9.756;2022-11-04T00:25:19;12.10;1.10
3208;DHT22;1616;52.394;9.756;2022-11-04T00:28:17;12.00;1.00
3208;DHT22;1616;52.394;9.756;2022-11-04T00:31:05;12.10;1.00
3208;DHT22;1616;52.394;9.756;2022-11-04T00:33:51;12.10;1.00
3208;DHT22;1616;52.394;9.756;2022-11-04T00:36:18;12.10;1.00
3208;DHT22;1616;52.394;9.756;2022-11-04T00:38:44;12.10;1.00
3208;DHT22;1616;52.394;9.756;2022-11-04T00:41:11;12.10;1.10
3208;DHT22;1616;52.394;9.756;2022-11-04T00:43:52;12.10;1.10
3208;DHT22;1616;52.394;9.756;2022-11-04T00:46:19;12.10;1.20
3208;DHT22;1616;52.394;9.756;2022-11-04T00:48:44;12.00;1.20
3208;DHT22;1616;52.394;9.756;2022-11-04T00:51:11;12.10;1.30
3208;DHT22;1616;52.394;9.756;2022-11-04T00:53:38;12.00;1.20
3208;DHT22;1616;52.394;9.756;2022-11-04T00:56:04;12.10;1.30
3208;DHT22;1616;52.394;9.756;2022-11-04T00:58:30;12.00;1.20
3208;DHT22;1616;52.394;9.756;2022-11-04T01:00:55;12.00;1.20
3208;DHT22;1616;52.394;9.756;2022-11-04T01:03:21;12.00;1.20
3208;DHT22;1616;52.394;9.756;2022-11-04T01:05:47;12.10;1.50
3208;DHT22;1616;52.394;9.756;2022-11-04T01:08:13;12.00;1.60
3208;DHT22;1616;52.394;9.756;2022-11-04T01:10:39;12.00;1.60
3208;DHT22;1616;52.394;9.756;2022-11-04T01:13:10;12.00;1.70
3208;DHT22;1616;52.394;9.756;2022-11-04T01:15:37;12.00;1.90
3208;DHT22;1616;52.394;9.756;2022-11-04T01:18:03;12.00;1.90
3208;DHT22;1616;52.394;9.756;2022-11-04T01:20:30;12.00;2.00
3208;DHT22;1616;52.394;9.756;2022-11-04T01:22:56;11.90;2.00
3208;DHT22;1616;52.394;9.756;2022-11-04T01:25:22;11.90;2.00
3208;DHT22;1616;52.394;9.756;2022-11-04T01:27:48;11.90;2.10
3208;DHT22;1616;52.394;9.756;2022-11-04T01:30:14;11.80;2.20
3208;DHT22;1616;52.394;9.756;2022-11-04T01:32:40;11.80;2.30
3208;DHT22;1616;52.394;9.756;2022-11-04T01:35:06;11.80;2.40
3208;DHT22;1616;52.394;9.756;2022-11-04T01:37:32;11.80;2.70
3208;DHT22;1616;52.394;9.756;2022-11-04T01:39:58;11.80;2.80
3208;DHT22;1616;52.394;9.756;2022-11-04T01:42:24;11.70;2.90
3208;DHT22;1616;52.394;9.756;2022-11-04T01:44:59;11.80;3.10
3208;DHT22;1616;52.394;9.756;2022-11-04T01:47:34;11.70;3.10
3208;DHT22;1616;52.394;9.756;2022-11-04T01:50:08;11.70;3.30
3208;DHT22;1616;52.394;9.756;2022-11-04T01:52:44;11.70;3.50
3208;DHT22;1616;52.394;9.756;2022-11-04T01:55:20;11.70;3.30
3208;DHT22;1616;52.394;9.756;2022-11-04T01:57:48;11.70;3.80
3208;DHT22;1616;52.394;9.756;2022-11-04T02:00:15;11.70;4.10
3208;DHT22;1616;52.394;9.756;2022-11-04T02:03:05;11.70;4.20
3208;DHT22;1616;52.394;9.756;2022-11-04T02:05:32;11.70;4.40
3208;DHT22;1616;52.394;9.756;2022-11-04T02:07:59;11.80;4.80
3208;DHT22;1616;52.394;9.756;2022-11-04T02:10:28;11.80;5.00
3208;DHT22;1616;52.394;9.756;2022-11-04T02:12:56;11.80;5.00
3208;DHT22;1616;52.394;9.756;2022-11-04T02:21:11;11.80;5.00
3208;DHT22;1616;52.394;9.756;2022-11-04T02:26:40;11.80;5.00
3208;DHT22;1616;52.394;9.756;2022-11-04T02:32:17;11.80;5.10
3208;DHT22;1616;52.394;9.756;2022-11-04T02:35:25;11.80;5.00
3208;DHT22;1616;52.394;9.756;2022-11-04T02:38:09;11.80;5.00
3208;DHT22;1616;52.394;9.756;2022-11-04T02:49:13;11.80;5.00
3208;DHT22;1616;52.394;9.756;2022-11-04T02:52:09;11.90;5.10
3208;DHT22;1616;52.394;9.756;2022-11-04T02:54:44;11.90;5.10
3208;DHT22;1616;52.394;9.756;2022-11-04T02:57:16;11.90;5.10
3208;DHT22;1616;52.394;9.756;2022-11-04T02:59:51;11.90;5.10
3208;DHT22;1616;52.394;9.756;2022-11-04T03:02:27;11.90;5.10
3208;DHT22;1616;52.394;9.756;2022-11-04T03:04:55;11.90;5.10
3208;DHT22;1616;52.394;9.756;2022-11-04T03:07:27;12.00;5.20
3208;DHT22;1616;52.394;9.756;2022-11-04T03:09:58;11.90;5.10
3208;DHT22;1616;52.394;9.756;2022-11-04T03:12:29;11.90;5.10
3208;DHT22;1616;52.394;9.756;2022-11-04T03:15:04;11.90;5.10
3208;DHT22;1616;52.394;9.756;2022-11-04T03:17:48;11.90;5.10
3208;DHT22;1616;52.394;9.756;2022-11-04T03:20:21;11.90;5.00
3208;DHT22;1616;52.394;9.756;2022-11-04T03:22:48;11.90;4.70
3208;DHT22;1616;52.394;9.756;2022-11-04T03:25:14;11.90;4.30
3208;DHT22;1616;52.394;9.756;2022-11-04T03:28:19;11.90;4.00
3208;DHT22;1616;52.394;9.756;2022-11-04T03:30:48;11.80;3.70
3208;DHT22;1616;52.394;9.756;2022-11-04T03:33:47;11.80;3.40
3208;DHT22;1616;52.394;9.756;2022-11-04T03:36:11;11.80;3.10
3208;DHT22;1616;52.394;9.756;2022-11-04T03:38:37;11.80;3.00
3208;DHT22;1616;52.394;9.756;2022-11-04T03:41:09;11.70;2.70
3208;DHT22;1616;52.394;9.756;2022-11-04T03:43:39;11.60;2.40
3208;DHT22;1616;52.394;9.756;2022-11-04T03:46:05;11.60;2.20
3208;DHT22;1616;52.394;9.756;2022-11-04T03:48:31;11.60;2.00
3208;DHT22;1616;52.394;9.756;2022-11-04T03:50:57;11.50;1.80
3208;DHT22;1616;52.394;9.756;2022-11-04T03:53:24;11.50;1.70
3208;DHT22;1616;52.394;9.756;2022-11-04T04:04:27;11.30;1.40
3208;DHT22;1616;52.394;9.756;2022-11-04T04:06:58;11.30;1.60
3208;DHT22;1616;52.394;9.756;2022-11-04T04:09:44;11.30;1.80
3208;DHT22;1616;52.394;9.756;2022-11-04T04:15:02;11.30;1.70
3208;DHT22;1616;52.394;9.756;2022-11-04T04:17:34;11.30;1.70
3208;DHT22;1616;52.394;9.756;2022-11-04T04:20:17;11.30;1.80
3208;DHT22;1616;52.394;9.756;2022-11-04T04:22:57;11.30;1.70
3208;DHT22;1616;52.394;9.756;2022-11-04T04:25:26;11.30;1.50
3208;DHT22;1616;52.394;9.756;2022-11-04T04:28:12;11.30;1.70
3208;DHT22;1616;52.394;9.756;2022-11-04T04:30:41;11.30;1.70
3208;DHT22;1616;52.394;9.756;2022-11-04T04:33:14;11.30;1.60
3208;DHT22;1616;52.394;9.756;2022-11-04T04:35:53;11.30;1.60
3208;DHT22;1616;52.394;9.756;2022-11-04T04:38:27;11.30;1.60
3208;DHT22;1616;52.394;9.756;2022-11-04T04:41:26;11.30;1.60
3208;DHT22;1616;52.394;9.756;2022-11-04T04:44:23;11.40;1.70
3208;DHT22;1616;52.394;9.756;2022-11-04T04:47:10;11.40;1.70
3208;DHT22;1616;52.394;9.756;2022-11-04T04:49:44;11.40;2.10
3208;DHT22;1616;52.394;9.756;2022-11-04T04:52:13;11.40;2.00
3208;DHT22;1616;52.394;9.756;2022-11-04T04:54:40;11.50;2.20
3208;DHT22;1616;52.394;9.756;2022-11-04T04:57:05;11.50;1.90
3208;DHT22;1616;52.394;9.756;2022-11-04T04:59:31;11.50;1.90
3208;DHT22;1616;52.394;9.756;2022-11-04T05:01:57;11.50;1.30
3208;DHT22;1616;52.394;9.756;2022-11-04T05:04:24;11.50;1.00
3208;DHT22;1616;52.394;9.756;2022-11-04T05:06:50;11.50;1.00
3208;DHT22;1616;52.394;9.756;2022-11-04T05:09:16;11.50;1.00
3208;DHT22;1616;52.394;9.756;2022-11-04T05:11:41;11.50;1.00
3208;DHT22;1616;52.394;9.756;2022-11-04T05:14:07;11.40;1.00
3208;DHT22;1616;52.394;9.756;2022-11-04T05:16:33;11.40;1.00
3208;DHT22;1616;52.394;9.756;2022-11-04T05:18:58;11.40;1.00
3208;DHT22;1616;52.394;9.756;2022-11-04T05:21:24;11.30;1.00
3208;DHT22;1616;52.394;9.756;2022-11-04T05:23:49;11.30;1.00
3208;DHT22;1616;52.394;9.756;2022-11-04T05:26:15;11.30;1.00
3208;DHT22;1616;52.394;9.756;2022-11-04T05:28:41;11.20;1.00
3208;DHT22;1616;52.394;9.756;2022-11-04T05:31:07;11.20;1.00
3208;DHT22;1616;52.394;9.756;2022-11-04T05:33:32;11.20;1.00
3208;DHT22;1616;52.394;9.756;2022-11-04T05:36:08;11.10;1.00
3208;DHT22;1616;52.394;9.756;2022-11-04T05:38:35;11.10;1.00
3208;DHT22;1616;52.394;9.756;2022-11-04T05:41:02;11.00;1.00
3208;DHT22;1616;52.394;9.756;2022-11-04T05:43:28;11.00;1.00
3208;DHT22;1616;52.394;9.756;2022-11-04T05:45:54;10.90;1.00
3208;DHT22;1616;52.394;9.756;2022-11-04T05:48:20;10.90;1.00
3208;DHT22;1616;52.394;9.756;2022-11-04T05:50:46;10.90;1.00
3208;DHT22;1616;52.394;9.756;2022-11-04T05:53:11;10.80;1.00
3208;DHT22;1616;52.394;9.756;2022-11-04T05:55:37;10.80;1.00
3208;DHT22;1616;52.394;9.756;2022-11-04T05:58:02;10.80;1.00
3208;DHT22;1616;52.394;9.756;2022-11-04T06:00:29;10.80;1.00
3208;DHT22;1616;52.394;9.756;2022-11-04T06:02:55;10.80;1.00
3208;DHT22;1616;52.394;9.756;2022-11-04T06:05:25;10.80;1.00
3208;DHT22;1616;52.394;9.756;2022-11-04T06:07:51;10.80;1.00
3208;DHT22;1616;52.394;9.756;2022-11-04T06:10:16;10.80;1.00
3208;DHT22;1616;52.394;9.756;2022-11-04T06:12:42;10.80;1.00
3208;DHT22;1616;52.394;9.756;2022-11-04T06:15:08;10.80;1.00
3208;DHT22;1616;52.394;9.756;2022-11-04T06:17:34;10.80;1.00
3208;DHT22;1616;52.394;9.756;2022-11-04T06:20:00;10.80;1.00
3208;DHT22;1616;52.394;9.756;2022-11-04T06:22:26;10.70;1.00
3208;DHT22;1616;52.394;9.756;2022-11-04T06:24:53;10.80;1.00
3208;DHT22;1616;52.394;9.756;2022-11-04T06:27:18;10.80;1.00
3208;DHT22;1616;52.394;9.756;2022-11-04T06:29:44;10.80;1.00
3208;DHT22;1616;52.394;9.756;2022-11-04T06:32:13;10.70;1.00
3208;DHT22;1616;52.394;9.756;2022-11-04T06:34:39;10.80;1.00
3208;DHT22;1616;52.394;9.756;2022-11-04T06:37:06;10.80;1.00
3208;DHT22;1616;52.394;9.756;2022-11-04T06:39:32;10.80;1.00
3208;DHT22;1616;52.394;9.756;2022-11-04T06:41:57;10.90;1.00
3208;DHT22;1616;52.394;9.756;2022-11-04T06:44:23;10.90;1.00
3208;DHT22;1616;52.394;9.756;2022-11-04T06:46:49;11.00;1.00
3208;DHT22;1616;52.394;9.756;2022-11-04T06:49:20;11.10;1.00
3208;DHT22;1616;52.394;9.756;2022-11-04T06:51:47;11.10;1.00
3208;DHT22;1616;52.394;9.756;2022-11-04T06:54:14;11.20;1.00
3208;DHT22;1616;52.394;9.756;2022-11-04T06:56:40;11.30;1.00
3208;DHT22;1616;52.394;9.756;2022-11-04T06:59:07;11.30;1.00
3208;DHT22;1616;52.394;9.756;2022-11-04T07:01:35;11.30;1.00
3208;DHT22;1616;52.394;9.756;2022-11-04T07:04:01;11.30;1.00
3208;DHT22;1616;52.394;9.756;2022-11-04T07:06:29;11.40;1.00
3208;DHT22;1616;52.394;9.756;2022-11-04T07:08:57;11.40;1.00
3208;DHT22;1616;52.394;9.756;2022-11-04T07:11:23;11.50;1.00
3208;DHT22;1616;52.394;9.756;2022-11-04T07:13:49;11.50;1.00
3208;DHT22;1616;52.394;9.756;2022-11-04T07:16:15;11.60;1.00
3208;DHT22;1616;52.394;9.756;2022-11-04T07:18:41;11.60;1.00
3208;DHT22;1616;52.394;9.756;2022-11-04T07:21:07;11.60;1.00
3208;DHT22;1616;52.394;9.756;2022-11-04T07:23:33;11.70;1.00
3208;DHT22;1616;52.394;9.756;2022-11-04T07:26:05;11.70;1.00
3208;DHT22;1616;52.394;9.756;2022-11-04T07:28:32;11.80;1.00
3208;DHT22;1616;52.394;9.756;2022-11-04T07:30:59;11.70;1.00
3208;DHT22;1616;52.394;9.756;2022-11-04T07:33:26;11.80;1.00
3208;DHT22;1616;52.394;9.756;2022-11-04T07:35:52;11.90;1.00
3208;DHT22;1616;52.394;9.756;2022-11-04T07:38:19;11.90;1.00
3208;DHT22;1616;52.394;9.756;2022-11-04T07:40:46;11.90;1.00
3208;DHT22;1616;52.394;9.756;2022-11-04T07:43:11;12.00;1.00
3208;DHT22;1616;52.394;9.756;2022-11-04T07:45:38;12.00;1.00
3208;DHT22;1616;52.394;9.756;2022-11-04T07:48:04;12.00;1.00
3208;DHT22;1616;52.394;9.756;2022-11-04T07:50:30;12.10;1.00
3208;DHT22;1616;52.394;9.756;2022-11-04T07:52:56;12.10;1.00
3208;DHT22;1616;52.394;9.756;2022-11-04T07:55:21;12.10;1.00
3208;DHT22;1616;52.394;9.756;2022-11-04T07:57:47;12.10;1.00
3208;DHT22;1616;52.394;9.756;2022-11-04T08:00:14;12.10;1.00
3208;DHT22;1616;52.394;9.756;2022-11-04T08:02:41;12.20;1.00
3208;DHT22;1616;52.394;9.756;2022-11-04T08:05:09;12.20;1.00
3208;DHT22;1616;52.394;9.756;2022-11-04T08:07:36;12.20;1.00
3208;DHT22;1616;52.394;9.756;2022-11-04T08:10:01;12.20;1.00
3208;DHT22;1616;52.394;9.756;2022-11-04T08:12:27;12.30;1.00
3208;DHT22;1616;52.394;9.756;2022-11-04T08:14:53;12.30;1.00
3208;DHT22;1616;52.394;9.756;2022-11-04T08:17:18;12.30;1.00
3208;DHT22;1616;52.394;9.756;2022-11-04T08:19:44;12.30;1.00
3208;DHT22;1616;52.394;9.756;2022-11-04T08:22:10;12.40;1.00
3208;DHT22;1616;52.394;9.756;2022-11-04T08:24:36;12.40;1.00
3208;DHT22;1616;52.394;9.756;2022-11-04T08:27:04;12.40;1.00
3208;DHT22;1616;52.394;9.756;2022-11-04T08:29:32;12.40;1.00
3208;DHT22;1616;52.394;9.756;2022-11-04T08:31:58;12.40;1.00
3208;DHT22;1616;52.394;9.756;2022-11-04T08:34:24;12.40;1.00
3208;DHT22;1616;52.394;9.756;2022-11-04T08:36:50;12.50;1.00
3208;DHT22;1616;52.394;9.756;2022-11-04T08:39:18;12.50;1.00
3208;DHT22;1616;52.394;9.756;2022-11-04T08:41:44;12.50;1.00
3208;DHT22;1616;52.394;9.756;2022-11-04T08:44:13;12.40;1.00
3208;DHT22;1616;52.394;9.756;2022-11-04T08:46:40;12.50;1.00
3208;DHT22;1616;52.394;9.756;2022-11-04T08:49:06;12.60;1.00
3208;DHT22;1616;52.394;9.756;2022-11-04T08:51:33;12.60;1.00
3208;DHT22;1616;52.394;9.756;2022-11-04T08:54:00;12.70;1.00
3208;DHT22;1616;52.394;9.756;2022-11-04T08:56:29;12.70;1.00
3208;DHT22;1616;52.394;9.756;2022-11-04T08:58:56;12.80;1.00
3208;DHT22;1616;52.394;9.756;2022-11-04T09:01:23;12.80;1.00
3208;DHT22;1616;52.394;9.756;2022-11-04T09:03:50;12.90;1.00
3208;DHT22;1616;52.394;9.756;2022-11-04T09:06:31;13.00;1.00
3208;DHT22;1616;52.394;9.756;2022-11-04T09:08:57;13.20;1.00
3208;DHT22;1616;52.394;9.756;2022-11-04T09:11:29;13.30;1.00
3208;DHT22;1616;52.394;9.756;2022-11-04T09:13:58;13.40;1.00
3208;DHT22;1616;52.394;9.756;2022-11-04T09:16:25;13.60;1.00
3208;DHT22;1616;52.394;9.756;2022-11-04T09:18:51;14.00;1.00
3208;DHT22;1616;52.394;9.756;2022-11-04T09:21:17;14.30;1.00
3208;DHT22;1616;52.394;9.756;2022-11-04T09:23:42;14.60;1.00
3208;DHT22;1616;52.394;9.756;2022-11-04T09:26:13;14.80;1.00
3208;DHT22;1616;52.394;9.756;2022-11-04T09:28:41;14.80;1.00
3208;DHT22;1616;52.394;9.756;2022-11-04T09:31:09;14.80;1.00
3208;DHT22;1616;52.394;9.756;2022-11-04T09:33:35;14.70;1.00
3208;DHT22;1616;52.394;9.756;2022-11-04T09:36:01;14.60;1.00
3208;DHT22;1616;52.394;9.756;2022-11-04T09:38:27;14.40;1.00
3208;DHT22;1616;52.394;9.756;2022-11-04T09:40:53;14.30;1.00
3208;DHT22;1616;52.394;9.756;2022-11-04T09:43:41;14.20;1.00
3208;DHT22;1616;52.394;9.756;2022-11-04T09:46:12;14.00;1.00
3208;DHT22;1616;52.394;9.756;2022-11-04T09:48:41;13.90;1.00
3208;DHT22;1616;52.394;9.756;2022-11-04T09:51:08;13.80;1.00
3208;DHT22;1616;52.394;9.756;2022-11-04T09:54:07;13.70;1.00
3208;DHT22;1616;52.394;9.756;2022-11-04T09:56:38;13.70;1.00
3208;DHT22;1616;52.394;9.756;2022-11-04T09:59:11;13.70;1.00
3208;DHT22;1616;52.394;9.756;2022-11-04T10:04:42;13.70;1.00
3208;DHT22;1616;52.394;9.756;2022-11-04T10:07:22;13.80;1.00
3208;DHT22;1616;52.394;9.756;2022-11-04T10:12:40;14.10;1.00
3208;DHT22;1616;52.394;9.756;2022-11-04T10:24:04;14.80;1.00
3208;DHT22;1616;52.394;9.756;2022-11-04T10:26:57;14.80;1.00
3208;DHT22;1616;52.394;9.756;2022-11-04T10:29:42;14.90;1.00
3208;DHT22;1616;52.394;9.756;2022-11-04T10:32:25;14.80;1.00
3208;DHT22;1616;52.394;9.756;2022-11-04T10:34:56;14.70;1.00
3208;DHT22;1616;52.394;9.756;2022-11-04T10:37:23;14.70;1.00
3208;DHT22;1616;52.394;9.756;2022-11-04T10:39:54;14.90;1.00
3208;DHT22;1616;52.394;9.756;2022-11-04T10:42:21;15.30;1.00
3208;DHT22;1616;52.394;9.756;2022-11-04T10:44:49;15.70;1.00
3208;DHT22;1616;52.394;9.756;2022-11-04T10:52:48;16.20;1.00
3208;DHT22;1616;52.394;9.756;2022-11-04T10:55:40;16.10;1.00
3208;DHT22;1616;52.394;9.756;2022-11-04T10:58:31;16.10;1.00
3208;DHT22;1616;52.394;9.756;2022-11-04T11:00:58;16.00;1.00
3208;DHT22;1616;52.394;9.756;2022-11-04T11:03:31;16.20;1.00
3208;DHT22;1616;52.394;9.756;2022-11-04T11:08:36;16.20;1.00
3208;DHT22;1616;52.394;9.756;2022-11-04T11:11:04;16.10;1.00
3208;DHT22;1616;52.394;9.756;2022-11-04T11:13:39;15.90;1.00
3208;DHT22;1616;52.394;9.756;2022-11-04T11:18:33;15.60;1.00
3208;DHT22;1616;52.394;9.756;2022-11-04T11:21:11;15.40;1.00
3208;DHT22;1616;52.394;9.756;2022-11-04T11:23:45;15.20;1.00
3208;DHT22;1616;52.394;9.756;2022-11-04T11:28:50;15.00;1.00
3208;DHT22;1616;52.394;9.756;2022-11-04T11:31:17;15.00;1.00
3208;DHT22;1616;52.394;9.756;2022-11-04T11:33:56;15.00;1.00
3208;DHT22;1616;52.394;9.756;2022-11-04T11:36:26;15.00;1.00
3208;DHT22;1616;52.394;9.756;2022-11-04T11:38:56;15.30;1.00
3208;DHT22;1616;52.394;9.756;2022-11-04T11:41:23;15.40;1.00
3208;DHT22;1616;52.394;9.756;2022-11-04T11:46:50;15.60;1.00
3208;DHT22;1616;52.394;9.756;2022-11-04T11:49:40;15.80;1.00
3208;DHT22;1616;52.394;9.756;2022-11-04T11:54:53;16.20;1.00
3208;DHT22;1616;52.394;9.756;2022-11-04T11:57:35;16.40;1.00
3208;DHT22;1616;52.394;9.756;2022-11-04T12:00:09;16.40;1.00
3208;DHT22;1616;52.394;9.756;2022-11-04T12:05:46;16.30;1.00
3208;DHT22;1616;52.394;9.756;2022-11-04T12:11:33;16.50;1.00
3208;DHT22;1616;52.394;9.756;2022-11-04T12:14:08;16.50;1.00
3208;DHT22;1616;52.394;9.756;2022-11-04T12:16:46;16.40;1.00
3208;DHT22;1616;52.394;9.756;2022-11-04T12:19:22;16.30;1.00
3208;DHT22;1616;52.394;9.756;2022-11-04T12:30:12;15.90;1.00
3208;DHT22;1616;52.394;9.756;2022-11-04T12:32:47;15.70;1.00
3208;DHT22;1616;52.394;9.756;2022-11-04T12:43:27;15.40;1.00
3208;DHT22;1616;52.394;9.756;2022-11-04T12:46:03;15.50;1.00
3208;DHT22;1616;52.394;9.756;2022-11-04T12:56:43;15.80;1.00
3208;DHT22;1616;52.394;9.756;2022-11-04T12:59:30;15.80;1.00
3208;DHT22;1616;52.394;9.756;2022-11-04T13:02:24;15.90;1.00
3208;DHT22;1616;52.394;9.756;2022-11-04T13:10:41;15.80;1.00
3208;DHT22;1616;52.394;9.756;2022-11-04T13:13:11;15.80;1.00
3208;DHT22;1616;52.394;9.756;2022-11-04T13:15:49;15.80;1.00
3208;DHT22;1616;52.394;9.756;2022-11-04T13:18:18;15.80;1.00
3208;DHT22;1616;52.394;9.756;2022-11-04T13:20:58;15.80;1.00
3208;DHT22;1616;52.394;9.756;2022-11-04T13:26:17;15.70;1.00
3208;DHT22;1616;52.394;9.756;2022-11-04T13:28:48;15.60;1.00
3208;DHT22;1616;52.394;9.756;2022-11-04T13:31:33;15.60;1.00
3208;DHT22;1616;52.394;9.756;2022-11-04T13:34:10;15.60;1.00
3208;DHT22;1616;52.394;9.756;2022-11-04T13:37:03;15.40;1.00
3208;DHT22;1616;52.394;9.756;2022-11-04T13:39:49;15.40;1.00
3208;DHT22;1616;52.394;9.756;2022-11-04T13:45:15;15.20;1.00
3208;DHT22;1616;52.394;9.756;2022-11-04T13:47:56;15.10;1.00
3208;DHT22;1616;52.394;9.756;2022-11-04T13:50:37;15.10;1.00
3208;DHT22;1616;52.394;9.756;2022-11-04T13:53:05;15.10;1.00
3208;DHT22;1616;52.394;9.756;2022-11-04T13:55:31;15.00;1.00
3208;DHT22;1616;52.394;9.756;2022-11-04T13:58:02;14.90;1.00
3208;DHT22;1616;52.394;9.756;2022-11-04T14:00:31;14.90;1.00
3208;DHT22;1616;52.394;9.756;2022-11-04T14:02:58;14.80;1.00
3208;DHT22;1616;52.394;9.756;2022-11-04T14:08:14;14.70;1.00
3208;DHT22;1616;52.394;9.756;2022-11-04T14:16:35;14.60;1.00
3208;DHT22;1616;52.394;9.756;2022-11-04T14:22:13;14.50;1.00
3208;DHT22;1616;52.394;9.756;2022-11-04T14:24:40;14.50;1.00
3208;DHT22;1616;52.394;9.756;2022-11-04T14:27:37;14.50;1.00
3208;DHT22;1616;52.394;9.756;2022-11-04T14:30:03;14.40;1.00
3208;DHT22;1616;52.394;9.756;2022-11-04T14:32:35;14.40;1.00
3208;DHT22;1616;52.394;9.756;2022-11-04T14:35:05;14.40;1.00
3208;DHT22;1616;52.394;9.756;2022-11-04T14:37:34;14.30;1.00
3208;DHT22;1616;52.394;9.756;2022-11-04T14:40:04;14.30;1.00
3208;DHT22;1616;52.394;9.756;2022-11-04T14:42:55;14.20;1.00
3208;DHT22;1616;52.394;9.756;2022-11-04T14:45:29;14.20;1.00
3208;DHT22;1616;52.394;9.756;2022-11-04T14:48:14;14.10;1.00
3208;DHT22;1616;52.394;9.756;2022-11-04T14:50:45;14.10;1.00
3208;DHT22;1616;52.394;9.756;2022-11-04T14:53:24;14.00;1.00
3208;DHT22;1616;52.394;9.756;2022-11-04T14:56:13;14.00;1.00
3208;DHT22;1616;52.394;9.756;2022-11-04T14:58:52;13.90;1.00
3208;DHT22;1616;52.394;9.756;2022-11-04T15:01:18;13.90;1.00
3208;DHT22;1616;52.394;9.756;2022-11-04T15:03:45;13.90;1.00
3208;DHT22;1616;52.394;9.756;2022-11-04T15:06:12;13.90;1.00
3208;DHT22;1616;52.394;9.756;2022-11-04T15:13:37;13.70;1.00
3208;DHT22;1616;52.394;9.756;2022-11-04T15:16:08;13.70;1.00
3208;DHT22;1616;52.394;9.756;2022-11-04T15:18:37;13.70;1.00
3208;DHT22;1616;52.394;9.756;2022-11-04T15:21:04;13.60;1.00
3208;DHT22;1616;52.394;9.756;2022-11-04T15:23:34;13.60;1.00
3208;DHT22;1616;52.394;9.756;2022-11-04T15:26:02;13.50;1.00
3208;DHT22;1616;52.394;9.756;2022-11-04T15:28:34;13.40;1.00
3208;DHT22;1616;52.394;9.756;2022-11-04T15:33:54;13.30;1.00
3208;DHT22;1616;52.394;9.756;2022-11-04T15:36:29;13.20;1.00
3208;DHT22;1616;52.394;9.756;2022-11-04T15:39:01;13.10;1.00
3208;DHT22;1616;52.394;9.756;2022-11-04T15:41:29;13.00;1.00
3208;DHT22;1616;52.394;9.756;2022-11-04T15:44:23;12.90;1.00
3208;DHT22;1616;52.394;9.756;2022-11-04T15:46:56;12.80;1.00
3208;DHT22;1616;52.394;9.756;2022-11-04T15:49:32;12.70;1.00
3208;DHT22;1616;52.394;9.756;2022-11-04T15:52:13;12.60;1.00
3208;DHT22;1616;52.394;9.756;2022-11-04T15:54:43;12.40;1.00
3208;DHT22;1616;52.394;9.756;2022-11-04T15:57:24;12.40;1.00
3208;DHT22;1616;52.394;9.756;2022-11-04T15:59:58;12.30;1.00
3208;DHT22;1616;52.394;9.756;2022-11-04T16:05:27;12.20;1.00
3208;DHT22;1616;52.394;9.756;2022-11-04T16:07:54;12.10;1.00
3208;DHT22;1616;52.394;9.756;2022-11-04T16:12:59;12.00;1.00
3208;DHT22;1616;52.394;9.756;2022-11-04T16:15:34;11.90;1.00
3208;DHT22;1616;52.394;9.756;2022-11-04T16:18:02;11.80;1.00
3208;DHT22;1616;52.394;9.756;2022-11-04T16:20:29;11.80;1.00
3208;DHT22;1616;52.394;9.756;2022-11-04T16:22:58;11.70;1.00
3208;DHT22;1616;52.394;9.756;2022-11-04T16:25:27;11.60;1.00
3208;DHT22;1616;52.394;9.756;2022-11-04T16:27:54;11.60;1.00
3208;DHT22;1616;52.394;9.756;2022-11-04T16:30:21;11.50;1.00
3208;DHT22;1616;52.394;9.756;2022-11-04T16:32:50;11.50;1.00
3208;DHT22;1616;52.394;9.756;2022-11-04T16:35:20;11.50;1.00
3208;DHT22;1616;52.394;9.756;2022-11-04T16:37:50;11.50;1.00
3208;DHT22;1616;52.394;9.756;2022-11-04T16:40:17;11.50;1.00
3208;DHT22;1616;52.394;9.756;2022-11-04T16:42:44;11.50;1.00
3208;DHT22;1616;52.394;9.756;2022-11-04T16:45:24;11.50;1.00
3208;DHT22;1616;52.394;9.756;2022-11-04T16:47:50;11.50;1.00
3208;DHT22;1616;52.394;9.756;2022-11-04T16:50:18;11.40;1.00
3208;DHT22;1616;52.394;9.756;2022-11-04T16:52:44;11.30;1.00
3208;DHT22;1616;52.394;9.756;2022-11-04T16:55:11;11.30;1.00
3208;DHT22;1616;52.394;9.756;2022-11-04T16:57:37;11.30;1.00
3208;DHT22;1616;52.394;9.756;2022-11-04T17:00:04;11.20;1.00
3208;DHT22;1616;52.394;9.756;2022-11-04T17:02:34;11.20;1.00
3208;DHT22;1616;52.394;9.756;2022-11-04T17:05:06;11.10;1.00
3208;DHT22;1616;52.394;9.756;2022-11-04T17:07:36;11.10;1.00
3208;DHT22;1616;52.394;9.756;2022-11-04T17:10:03;11.10;1.00
3208;DHT22;1616;52.394;9.756;2022-11-04T17:12:29;11.00;1.00
3208;DHT22;1616;52.394;9.756;2022-11-04T17:14:54;11.00;1.00
3208;DHT22;1616;52.394;9.756;2022-11-04T17:17:20;11.00;1.00
3208;DHT22;1616;52.394;9.756;2022-11-04T17:19:46;10.90;1.00
3208;DHT22;1616;52.394;9.756;2022-11-04T17:22:12;10.90;1.00
3208;DHT22;1616;52.394;9.756;2022-11-04T17:24:38;10.90;1.00
3208;DHT22;1616;52.394;9.756;2022-11-04T17:27:04;10.90;1.00
3208;DHT22;1616;52.394;9.756;2022-11-04T17:29:31;10.90;1.00
3208;DHT22;1616;52.394;9.756;2022-11-04T17:31:56;10.80;1.00
3208;DHT22;1616;52.394;9.756;2022-11-04T17:34:22;10.80;1.00
3208;DHT22;1616;52.394;9.756;2022-11-04T17:36:53;10.80;1.00
3208;DHT22;1616;52.394;9.756;2022-11-04T17:39:19;10.80;1.00
3208;DHT22;1616;52.394;9.756;2022-11-04T17:41:45;10.80;1.00
3208;DHT22;1616;52.394;9.756;2022-11-04T17:44:29;10.80;1.00
3208;DHT22;1616;52.394;9.756;2022-11-04T17:46:56;10.80;1.00
3208;DHT22;1616;52.394;9.756;2022-11-04T17:49:25;10.80;1.00
3208;DHT22;1616;52.394;9.756;2022-11-04T17:51:52;10.80;1.00
3208;DHT22;1616;52.394;9.756;2022-11-04T17:54:20;10.80;1.00
3208;DHT22;1616;52.394;9.756;2022-11-04T17:56:46;10.80;1.00
3208;DHT22;1616;52.394;9.756;2022-11-04T17:59:14;10.70;1.00
3208;DHT22;1616;52.394;9.756;2022-11-04T18:01:41;10.70;1.00
3208;DHT22;1616;52.394;9.756;2022-11-04T18:04:08;10.70;1.00
3208;DHT22;1616;52.394;9.756;2022-11-04T18:06:36;10.60;1.00
3208;DHT22;1616;52.394;9.756;2022-11-04T18:09:03;10.60;1.00
3208;DHT22;1616;52.394;9.756;2022-11-04T18:11:29;10.50;1.00
3208;DHT22;1616;52.394;9.756;2022-11-04T18:14:16;10.50;1.00
3208;DHT22;1616;52.394;9.756;2022-11-04T18:16:44;10.50;1.00
3208;DHT22;1616;52.394;9.756;2022-11-04T18:19:10;10.40;1.00
3208;DHT22;1616;52.394;9.756;2022-11-04T18:21:36;10.40;1.00
3208;DHT22;1616;52.394;9.756;2022-11-04T18:24:02;10.30;1.00
3208;DHT22;1616;52.394;9.756;2022-11-04T18:26:29;10.30;1.00
3208;DHT22;1616;52.394;9.756;2022-11-04T18:28:55;10.30;1.00
3208;DHT22;1616;52.394;9.756;2022-11-04T18:31:28;10.20;1.00
3208;DHT22;1616;52.394;9.756;2022-11-04T18:33:58;10.20;1.00
3208;DHT22;1616;52.394;9.756;2022-11-04T18:36:26;10.20;1.00
3208;DHT22;1616;52.394;9.756;2022-11-04T18:38:52;10.10;1.00
3208;DHT22;1616;52.394;9.756;2022-11-04T18:41:18;10.10;1.00
3208;DHT22;1616;52.394;9.756;2022-11-04T18:43:43;10.10;1.00
3208;DHT22;1616;52.394;9.756;2022-11-04T18:46:12;10.10;1.00
3208;DHT22;1616;52.394;9.756;2022-11-04T18:48:38;10.00;1.00
3208;DHT22;1616;52.394;9.756;2022-11-04T18:51:06;10.00;1.00
3208;DHT22;1616;52.394;9.756;2022-11-04T18:53:34;10.00;1.00